sensor_id;sensor_type;location;lat;lon;timestamp;P1;durP1;ratioP1;P2;durP2;ratioP2
4047;SDS011;2038;51.728;6.674;2023-04-03T00:00:47;5.90;;;5.17;;
4047;SDS011;2038;51.728;6.674;2023-04-03T00:03:14;5.37;;;4.87;;
4047;SDS011;2038;51.728;6.674;2023-04-03T00:05:42;6.67;;;5.37;;
4047;SDS011;2038;51.728;6.674;2023-04-03T00:08:08;6.63;;;6.03;;
4047;SDS011;2038;51.728;6.674;2023-04-03T00:10:35;7.63;;;5.80;;
4047;SDS011;2038;51.728;6.674;2023-04-03T00:13:02;6.60;;;4.90;;
4047;SDS011;2038;51.728;6.674;2023-04-03T00:15:31;8.70;;;5.70;;
4047;SDS011;2038;51.728;6.674;2023-04-03T00:17:57;10.70;;;5.60;;
4047;SDS011;2038;51.728;6.674;2023-04-03T00:20:24;5.93;;;4.70;;
4047;SDS011;2038;51.728;6.674;2023-04-03T00:22:50;5.17;;;4.60;;
4047;SDS011;2038;51.728;6.674;2023-04-03T00:25:17;9.40;;;5.17;;
4047;SDS011;2038;51.728;6.674;2023-04-03T00:27:43;7.63;;;4.57;;
4047;SDS011;2038;51.728;6.674;2023-04-03T00:30:11;6.17;;;4.83;;
4047;SDS011;2038;51.728;6.674;2023-04-03T00:32:41;5.17;;;4.17;;
4047;SDS011;2038;51.728;6.674;2023-04-03T00:35:07;8.83;;;4.70;;
4047;SDS011;2038;51.728;6.674;2023-04-03T00:37:34;8.20;;;4.33;;
4047;SDS011;2038;51.728;6.674;2023-04-03T00:40:01;5.63;;;4.67;;
4047;SDS011;2038;51.728;6.674;2023-04-03T00:42:30;5.20;;;4.07;;
4047;SDS011;2038;51.728;6.674;2023-04-03T00:47:23;5.33;;;3.53;;
4047;SDS011;2038;51.728;6.674;2023-04-03T00:49:51;4.47;;;3.30;;
4047;SDS011;2038;51.728;6.674;2023-04-03T00:52:19;4.60;;;3.63;;
4047;SDS011;2038;51.728;6.674;2023-04-03T00:54:53;4.20;;;3.80;;
4047;SDS011;2038;51.728;6.674;2023-04-03T00:57:25;4.17;;;3.77;;
4047;SDS011;2038;51.728;6.674;2023-04-03T00:59:55;4.07;;;3.40;;
4047;SDS011;2038;51.728;6.674;2023-04-03T01:02:29;3.30;;;3.00;;
4047;SDS011;2038;51.728;6.674;2023-04-03T01:04:55;4.93;;;4.10;;
4047;SDS011;2038;51.728;6.674;2023-04-03T01:07:23;5.97;;;3.90;;
4047;SDS011;2038;51.728;6.674;2023-04-03T01:09:58;4.23;;;3.50;;
4047;SDS011;2038;51.728;6.674;2023-04-03T01:12:33;7.13;;;3.50;;
4047;SDS011;2038;51.728;6.674;2023-04-03T01:15:08;6.17;;;4.07;;
4047;SDS011;2038;51.728;6.674;2023-04-03T01:23:31;9.20;;;3.13;;
4047;SDS011;2038;51.728;6.674;2023-04-03T01:26:23;4.00;;;3.60;;
4047;SDS011;2038;51.728;6.674;2023-04-03T01:28:50;5.47;;;2.93;;
4047;SDS011;2038;51.728;6.674;2023-04-03T01:31:21;4.10;;;3.00;;
4047;SDS011;2038;51.728;6.674;2023-04-03T01:33:56;7.07;;;2.90;;
4047;SDS011;2038;51.728;6.674;2023-04-03T01:36:24;11.63;;;3.57;;
4047;SDS011;2038;51.728;6.674;2023-04-03T01:38:56;6.30;;;2.63;;
4047;SDS011;2038;51.728;6.674;2023-04-03T01:41:24;5.83;;;3.27;;
4047;SDS011;2038;51.728;6.674;2023-04-03T01:43:52;4.03;;;2.83;;
4047;SDS011;2038;51.728;6.674;2023-04-03T01:46:18;3.20;;;2.80;;
4047;SDS011;2038;51.728;6.674;2023-04-03T01:48:46;7.27;;;3.23;;
4047;SDS011;2038;51.728;6.674;2023-04-03T01:51:12;9.50;;;4.87;;
4047;SDS011;2038;51.728;6.674;2023-04-03T01:53:39;5.10;;;3.10;;
4047;SDS011;2038;51.728;6.674;2023-04-03T01:56:05;7.13;;;3.70;;
4047;SDS011;2038;51.728;6.674;2023-04-03T01:58:32;5.50;;;3.43;;
4047;SDS011;2038;51.728;6.674;2023-04-03T02:00:58;3.70;;;2.97;;
4047;SDS011;2038;51.728;6.674;2023-04-03T02:03:24;6.63;;;2.87;;
4047;SDS011;2038;51.728;6.674;2023-04-03T02:05:51;4.70;;;2.43;;
4047;SDS011;2038;51.728;6.674;2023-04-03T02:08:17;3.07;;;2.70;;
4047;SDS011;2038;51.728;6.674;2023-04-03T02:10:44;4.50;;;2.90;;
4047;SDS011;2038;51.728;6.674;2023-04-03T02:13:13;3.57;;;3.17;;
4047;SDS011;2038;51.728;6.674;2023-04-03T02:15:40;4.37;;;2.97;;
4047;SDS011;2038;51.728;6.674;2023-04-03T02:18:06;3.70;;;3.40;;
4047;SDS011;2038;51.728;6.674;2023-04-03T02:20:33;4.70;;;3.57;;
4047;SDS011;2038;51.728;6.674;2023-04-03T02:22:59;4.37;;;3.30;;
4047;SDS011;2038;51.728;6.674;2023-04-03T02:25:26;6.57;;;3.00;;
4047;SDS011;2038;51.728;6.674;2023-04-03T02:27:52;8.23;;;3.47;;
4047;SDS011;2038;51.728;6.674;2023-04-03T02:30:19;7.43;;;3.17;;
4047;SDS011;2038;51.728;6.674;2023-04-03T02:32:45;6.50;;;3.37;;
4047;SDS011;2038;51.728;6.674;2023-04-03T02:35:11;3.97;;;2.90;;
4047;SDS011;2038;51.728;6.674;2023-04-03T02:37:38;4.43;;;4.00;;
4047;SDS011;2038;51.728;6.674;2023-04-03T02:40:04;4.27;;;3.20;;
4047;SDS011;2038;51.728;6.674;2023-04-03T02:42:31;6.57;;;3.40;;
4047;SDS011;2038;51.728;6.674;2023-04-03T02:44:58;7.17;;;2.97;;
4047;SDS011;2038;51.728;6.674;2023-04-03T02:47:25;6.23;;;3.33;;
4047;SDS011;2038;51.728;6.674;2023-04-03T02:49:52;4.40;;;2.73;;
4047;SDS011;2038;51.728;6.674;2023-04-03T02:52:19;5.97;;;3.30;;
4047;SDS011;2038;51.728;6.674;2023-04-03T02:54:45;8.70;;;4.33;;
4047;SDS011;2038;51.728;6.674;2023-04-03T02:57:12;4.40;;;3.20;;
4047;SDS011;2038;51.728;6.674;2023-04-03T02:59:38;7.87;;;2.83;;
4047;SDS011;2038;51.728;6.674;2023-04-03T03:02:06;7.77;;;3.53;;
4047;SDS011;2038;51.728;6.674;2023-04-03T03:04:33;4.37;;;3.00;;
4047;SDS011;2038;51.728;6.674;2023-04-03T03:07:00;6.60;;;3.53;;
4047;SDS011;2038;51.728;6.674;2023-04-03T03:09:27;4.40;;;2.87;;
4047;SDS011;2038;51.728;6.674;2023-04-03T03:11:54;3.70;;;2.50;;
4047;SDS011;2038;51.728;6.674;2023-04-03T03:14:22;3.70;;;3.30;;
4047;SDS011;2038;51.728;6.674;2023-04-03T03:16:48;3.13;;;2.67;;
4047;SDS011;2038;51.728;6.674;2023-04-03T03:19:15;3.77;;;3.40;;
4047;SDS011;2038;51.728;6.674;2023-04-03T03:21:41;14.40;;;3.13;;
4047;SDS011;2038;51.728;6.674;2023-04-03T03:24:07;3.97;;;2.83;;
4047;SDS011;2038;51.728;6.674;2023-04-03T03:26:34;11.87;;;3.43;;
4047;SDS011;2038;51.728;6.674;2023-04-03T03:29:00;5.20;;;3.73;;
4047;SDS011;2038;51.728;6.674;2023-04-03T03:31:27;3.00;;;2.70;;
4047;SDS011;2038;51.728;6.674;2023-04-03T03:33:53;11.97;;;4.20;;
4047;SDS011;2038;51.728;6.674;2023-04-03T03:36:19;7.10;;;2.80;;
4047;SDS011;2038;51.728;6.674;2023-04-03T03:38:46;9.57;;;3.30;;
4047;SDS011;2038;51.728;6.674;2023-04-03T03:41:12;3.93;;;2.93;;
4047;SDS011;2038;51.728;6.674;2023-04-03T03:43:38;7.70;;;2.53;;
4047;SDS011;2038;51.728;6.674;2023-04-03T03:46:04;7.63;;;3.30;;
4047;SDS011;2038;51.728;6.674;2023-04-03T03:48:31;17.03;;;3.53;;
4047;SDS011;2038;51.728;6.674;2023-04-03T03:50:57;4.50;;;3.13;;
4047;SDS011;2038;51.728;6.674;2023-04-03T03:53:23;4.53;;;4.00;;
4047;SDS011;2038;51.728;6.674;2023-04-03T03:55:50;10.43;;;3.40;;
4047;SDS011;2038;51.728;6.674;2023-04-03T03:58:16;3.77;;;3.23;;
4047;SDS011;2038;51.728;6.674;2023-04-03T04:00:42;3.00;;;2.70;;
4047;SDS011;2038;51.728;6.674;2023-04-03T04:03:09;6.00;;;2.90;;
4047;SDS011;2038;51.728;6.674;2023-04-03T04:05:35;4.83;;;3.10;;
4047;SDS011;2038;51.728;6.674;2023-04-03T04:08:02;2.80;;;2.60;;
4047;SDS011;2038;51.728;6.674;2023-04-03T04:10:28;8.10;;;3.30;;
4047;SDS011;2038;51.728;6.674;2023-04-03T04:12:54;7.17;;;4.57;;
4047;SDS011;2038;51.728;6.674;2023-04-03T04:15:20;5.00;;;3.40;;
4047;SDS011;2038;51.728;6.674;2023-04-03T04:17:47;8.20;;;3.77;;
4047;SDS011;2038;51.728;6.674;2023-04-03T04:20:14;5.30;;;3.23;;
4047;SDS011;2038;51.728;6.674;2023-04-03T04:22:40;5.80;;;3.50;;
4047;SDS011;2038;51.728;6.674;2023-04-03T04:25:06;7.00;;;3.33;;
4047;SDS011;2038;51.728;6.674;2023-04-03T04:27:33;7.77;;;2.97;;
4047;SDS011;2038;51.728;6.674;2023-04-03T04:29:59;5.87;;;3.30;;
4047;SDS011;2038;51.728;6.674;2023-04-03T04:32:26;3.53;;;3.23;;
4047;SDS011;2038;51.728;6.674;2023-04-03T04:34:52;3.43;;;2.93;;
4047;SDS011;2038;51.728;6.674;2023-04-03T04:37:18;6.37;;;3.80;;
4047;SDS011;2038;51.728;6.674;2023-04-03T04:39:44;9.13;;;4.13;;
4047;SDS011;2038;51.728;6.674;2023-04-03T04:42:10;4.90;;;3.13;;
4047;SDS011;2038;51.728;6.674;2023-04-03T04:44:38;7.50;;;3.60;;
4047;SDS011;2038;51.728;6.674;2023-04-03T04:47:04;7.43;;;3.40;;
4047;SDS011;2038;51.728;6.674;2023-04-03T04:49:31;5.50;;;3.70;;
4047;SDS011;2038;51.728;6.674;2023-04-03T04:51:57;5.97;;;3.63;;
4047;SDS011;2038;51.728;6.674;2023-04-03T04:54:23;10.23;;;3.77;;
4047;SDS011;2038;51.728;6.674;2023-04-03T04:56:50;4.13;;;3.43;;
4047;SDS011;2038;51.728;6.674;2023-04-03T04:59:16;4.63;;;3.70;;
4047;SDS011;2038;51.728;6.674;2023-04-03T05:01:42;3.87;;;3.23;;
4047;SDS011;2038;51.728;6.674;2023-04-03T05:04:09;5.27;;;3.30;;
4047;SDS011;2038;51.728;6.674;2023-04-03T05:06:37;6.20;;;3.73;;
4047;SDS011;2038;51.728;6.674;2023-04-03T05:09:03;4.80;;;3.60;;
4047;SDS011;2038;51.728;6.674;2023-04-03T05:11:30;5.73;;;2.90;;
4047;SDS011;2038;51.728;6.674;2023-04-03T05:13:56;11.97;;;3.57;;
4047;SDS011;2038;51.728;6.674;2023-04-03T05:16:22;8.67;;;4.03;;
4047;SDS011;2038;51.728;6.674;2023-04-03T05:18:48;4.73;;;2.80;;
4047;SDS011;2038;51.728;6.674;2023-04-03T05:21:15;9.63;;;3.73;;
4047;SDS011;2038;51.728;6.674;2023-04-03T05:23:43;13.13;;;3.57;;
4047;SDS011;2038;51.728;6.674;2023-04-03T05:26:09;6.10;;;3.43;;
4047;SDS011;2038;51.728;6.674;2023-04-03T05:28:35;4.40;;;3.87;;
4047;SDS011;2038;51.728;6.674;2023-04-03T05:31:01;10.60;;;4.23;;
4047;SDS011;2038;51.728;6.674;2023-04-03T05:33:28;15.07;;;3.70;;
4047;SDS011;2038;51.728;6.674;2023-04-03T05:35:54;7.90;;;3.90;;
4047;SDS011;2038;51.728;6.674;2023-04-03T05:38:20;7.47;;;3.40;;
4047;SDS011;2038;51.728;6.674;2023-04-03T05:40:47;4.93;;;3.00;;
4047;SDS011;2038;51.728;6.674;2023-04-03T05:43:13;13.67;;;3.80;;
4047;SDS011;2038;51.728;6.674;2023-04-03T05:45:39;8.70;;;4.37;;
4047;SDS011;2038;51.728;6.674;2023-04-03T05:48:05;7.13;;;3.57;;
4047;SDS011;2038;51.728;6.674;2023-04-03T05:50:32;4.27;;;3.50;;
4047;SDS011;2038;51.728;6.674;2023-04-03T05:52:58;12.10;;;3.23;;
4047;SDS011;2038;51.728;6.674;2023-04-03T05:55:28;6.23;;;3.80;;
4047;SDS011;2038;51.728;6.674;2023-04-03T05:57:54;4.67;;;3.33;;
4047;SDS011;2038;51.728;6.674;2023-04-03T06:00:21;5.83;;;3.47;;
4047;SDS011;2038;51.728;6.674;2023-04-03T06:02:47;4.70;;;3.60;;
4047;SDS011;2038;51.728;6.674;2023-04-03T06:05:13;5.53;;;3.93;;
4047;SDS011;2038;51.728;6.674;2023-04-03T06:07:40;7.27;;;3.30;;
4047;SDS011;2038;51.728;6.674;2023-04-03T06:10:06;10.50;;;4.27;;
4047;SDS011;2038;51.728;6.674;2023-04-03T06:12:33;7.03;;;3.10;;
4047;SDS011;2038;51.728;6.674;2023-04-03T06:15:00;9.23;;;4.00;;
4047;SDS011;2038;51.728;6.674;2023-04-03T06:17:27;5.13;;;3.83;;
4047;SDS011;2038;51.728;6.674;2023-04-03T06:19:53;4.33;;;3.93;;
4047;SDS011;2038;51.728;6.674;2023-04-03T06:22:20;7.37;;;3.33;;
4047;SDS011;2038;51.728;6.674;2023-04-03T06:24:47;4.70;;;3.03;;
4047;SDS011;2038;51.728;6.674;2023-04-03T06:27:13;9.33;;;4.07;;
4047;SDS011;2038;51.728;6.674;2023-04-03T06:29:39;8.00;;;3.80;;
4047;SDS011;2038;51.728;6.674;2023-04-03T06:32:05;6.50;;;3.57;;
4047;SDS011;2038;51.728;6.674;2023-04-03T06:34:32;6.07;;;3.30;;
4047;SDS011;2038;51.728;6.674;2023-04-03T06:36:58;7.53;;;4.37;;
4047;SDS011;2038;51.728;6.674;2023-04-03T06:39:24;9.00;;;3.80;;
4047;SDS011;2038;51.728;6.674;2023-04-03T06:41:52;4.20;;;3.80;;
4047;SDS011;2038;51.728;6.674;2023-04-03T06:44:18;21.93;;;5.47;;
4047;SDS011;2038;51.728;6.674;2023-04-03T06:46:44;4.63;;;3.43;;
4047;SDS011;2038;51.728;6.674;2023-04-03T06:49:11;6.17;;;3.67;;
4047;SDS011;2038;51.728;6.674;2023-04-03T06:51:37;7.33;;;3.73;;
4047;SDS011;2038;51.728;6.674;2023-04-03T06:54:04;5.70;;;3.97;;
4047;SDS011;2038;51.728;6.674;2023-04-03T06:56:31;8.77;;;3.20;;
4047;SDS011;2038;51.728;6.674;2023-04-03T06:58:57;8.20;;;4.07;;
4047;SDS011;2038;51.728;6.674;2023-04-03T07:01:25;8.67;;;3.03;;
4047;SDS011;2038;51.728;6.674;2023-04-03T07:03:53;8.67;;;3.23;;
4047;SDS011;2038;51.728;6.674;2023-04-03T07:06:20;6.03;;;3.60;;
4047;SDS011;2038;51.728;6.674;2023-04-03T07:08:47;5.00;;;3.60;;
4047;SDS011;2038;51.728;6.674;2023-04-03T07:11:14;7.00;;;3.27;;
4047;SDS011;2038;51.728;6.674;2023-04-03T07:13:41;4.87;;;3.73;;
4047;SDS011;2038;51.728;6.674;2023-04-03T07:16:07;9.27;;;3.60;;
4047;SDS011;2038;51.728;6.674;2023-04-03T07:18:34;4.03;;;3.40;;
4047;SDS011;2038;51.728;6.674;2023-04-03T07:21:01;9.00;;;4.27;;
4047;SDS011;2038;51.728;6.674;2023-04-03T07:23:29;6.50;;;4.40;;
4047;SDS011;2038;51.728;6.674;2023-04-03T07:25:56;5.80;;;3.23;;
4047;SDS011;2038;51.728;6.674;2023-04-03T07:28:22;7.93;;;3.60;;
4047;SDS011;2038;51.728;6.674;2023-04-03T07:30:52;8.07;;;3.20;;
4047;SDS011;2038;51.728;6.674;2023-04-03T07:33:29;5.30;;;3.47;;
4047;SDS011;2038;51.728;6.674;2023-04-03T07:35:56;8.33;;;2.80;;
4047;SDS011;2038;51.728;6.674;2023-04-03T07:38:23;9.27;;;2.97;;
4047;SDS011;2038;51.728;6.674;2023-04-03T07:40:50;9.97;;;3.10;;
4047;SDS011;2038;51.728;6.674;2023-04-03T07:43:18;7.67;;;2.97;;
4047;SDS011;2038;51.728;6.674;2023-04-03T07:45:46;5.63;;;3.37;;
4047;SDS011;2038;51.728;6.674;2023-04-03T07:48:19;9.83;;;3.03;;
4047;SDS011;2038;51.728;6.674;2023-04-03T07:50:47;4.97;;;2.70;;
4047;SDS011;2038;51.728;6.674;2023-04-03T07:53:14;4.93;;;3.13;;
4047;SDS011;2038;51.728;6.674;2023-04-03T07:55:42;6.53;;;3.50;;
4047;SDS011;2038;51.728;6.674;2023-04-03T07:58:12;8.77;;;3.30;;
4047;SDS011;2038;51.728;6.674;2023-04-03T08:00:41;6.17;;;3.03;;
4047;SDS011;2038;51.728;6.674;2023-04-03T08:03:09;4.07;;;2.70;;
4047;SDS011;2038;51.728;6.674;2023-04-03T08:05:40;7.10;;;3.63;;
4047;SDS011;2038;51.728;6.674;2023-04-03T08:08:09;5.37;;;3.20;;
4047;SDS011;2038;51.728;6.674;2023-04-03T08:10:37;4.87;;;2.80;;
4047;SDS011;2038;51.728;6.674;2023-04-03T08:13:06;3.43;;;3.07;;
4047;SDS011;2038;51.728;6.674;2023-04-03T08:15:34;12.17;;;3.83;;
4047;SDS011;2038;51.728;6.674;2023-04-03T08:18:01;3.23;;;3.00;;
4047;SDS011;2038;51.728;6.674;2023-04-03T08:20:28;4.93;;;2.63;;
4047;SDS011;2038;51.728;6.674;2023-04-03T08:22:54;4.47;;;2.73;;
4047;SDS011;2038;51.728;6.674;2023-04-03T08:25:21;4.27;;;3.20;;
4047;SDS011;2038;51.728;6.674;2023-04-03T08:27:49;4.73;;;3.07;;
4047;SDS011;2038;51.728;6.674;2023-04-03T08:30:16;3.83;;;2.77;;
4047;SDS011;2038;51.728;6.674;2023-04-03T08:32:42;5.70;;;2.77;;
4047;SDS011;2038;51.728;6.674;2023-04-03T08:35:09;10.13;;;2.90;;
4047;SDS011;2038;51.728;6.674;2023-04-03T08:37:37;5.10;;;2.87;;
4047;SDS011;2038;51.728;6.674;2023-04-03T08:40:05;6.03;;;2.70;;
4047;SDS011;2038;51.728;6.674;2023-04-03T08:48:34;2.57;;;2.37;;
4047;SDS011;2038;51.728;6.674;2023-04-03T08:51:17;3.80;;;2.43;;
4047;SDS011;2038;51.728;6.674;2023-04-03T08:53:48;5.10;;;2.10;;
4047;SDS011;2038;51.728;6.674;2023-04-03T08:56:46;5.77;;;2.53;;
4047;SDS011;2038;51.728;6.674;2023-04-03T08:59:14;3.13;;;2.50;;
4047;SDS011;2038;51.728;6.674;2023-04-03T09:01:52;5.57;;;3.37;;
4047;SDS011;2038;51.728;6.674;2023-04-03T09:04:31;2.97;;;2.20;;
4047;SDS011;2038;51.728;6.674;2023-04-03T09:07:02;6.63;;;2.10;;
4047;SDS011;2038;51.728;6.674;2023-04-03T09:09:45;3.10;;;2.00;;
4047;SDS011;2038;51.728;6.674;2023-04-03T09:12:22;3.93;;;2.03;;
4047;SDS011;2038;51.728;6.674;2023-04-03T09:17:41;3.97;;;1.83;;
4047;SDS011;2038;51.728;6.674;2023-04-03T09:20:45;4.30;;;2.30;;
4047;SDS011;2038;51.728;6.674;2023-04-03T09:23:40;3.70;;;1.63;;
4047;SDS011;2038;51.728;6.674;2023-04-03T09:26:17;4.83;;;1.80;;
4047;SDS011;2038;51.728;6.674;2023-04-03T09:28:50;3.63;;;2.53;;
4047;SDS011;2038;51.728;6.674;2023-04-03T09:31:24;2.20;;;1.50;;
4047;SDS011;2038;51.728;6.674;2023-04-03T09:34:19;4.47;;;2.50;;
4047;SDS011;2038;51.728;6.674;2023-04-03T09:36:57;5.63;;;2.00;;
4047;SDS011;2038;51.728;6.674;2023-04-03T09:39:31;2.70;;;2.03;;
4047;SDS011;2038;51.728;6.674;2023-04-03T09:42:16;2.60;;;2.40;;
4047;SDS011;2038;51.728;6.674;2023-04-03T09:45:21;7.50;;;1.87;;
4047;SDS011;2038;51.728;6.674;2023-04-03T09:47:50;3.07;;;2.07;;
4047;SDS011;2038;51.728;6.674;2023-04-03T09:58:46;2.20;;;1.97;;
4047;SDS011;2038;51.728;6.674;2023-04-03T10:01:33;2.57;;;1.80;;
4047;SDS011;2038;51.728;6.674;2023-04-03T10:04:08;2.80;;;1.70;;
4047;SDS011;2038;51.728;6.674;2023-04-03T10:06:42;3.00;;;1.87;;
4047;SDS011;2038;51.728;6.674;2023-04-03T10:09:16;8.07;;;2.23;;
4047;SDS011;2038;51.728;6.674;2023-04-03T10:12:10;3.60;;;2.30;;
4047;SDS011;2038;51.728;6.674;2023-04-03T10:14:40;1.97;;;1.87;;
4047;SDS011;2038;51.728;6.674;2023-04-03T10:23:28;2.30;;;2.07;;
4047;SDS011;2038;51.728;6.674;2023-04-03T10:26:58;4.57;;;2.40;;
4047;SDS011;2038;51.728;6.674;2023-04-03T10:35:05;2.23;;;1.80;;
4047;SDS011;2038;51.728;6.674;2023-04-03T10:46:33;2.47;;;2.17;;
4047;SDS011;2038;51.728;6.674;2023-04-03T10:49:20;3.10;;;1.90;;
4047;SDS011;2038;51.728;6.674;2023-04-03T10:57:59;2.10;;;2.00;;
4047;SDS011;2038;51.728;6.674;2023-04-03T11:03:15;6.53;;;2.20;;
4047;SDS011;2038;51.728;6.674;2023-04-03T11:05:57;2.10;;;1.63;;
4047;SDS011;2038;51.728;6.674;2023-04-03T11:08:48;2.37;;;2.13;;
4047;SDS011;2038;51.728;6.674;2023-04-03T11:11:29;3.53;;;2.10;;
4047;SDS011;2038;51.728;6.674;2023-04-03T11:16:37;6.47;;;2.10;;
4047;SDS011;2038;51.728;6.674;2023-04-03T11:19:17;2.80;;;2.00;;
4047;SDS011;2038;51.728;6.674;2023-04-03T11:24:36;4.67;;;2.40;;
4047;SDS011;2038;51.728;6.674;2023-04-03T11:27:09;2.13;;;1.93;;
4047;SDS011;2038;51.728;6.674;2023-04-03T11:29:43;2.03;;;1.83;;
4047;SDS011;2038;51.728;6.674;2023-04-03T11:32:58;4.40;;;2.67;;
4047;SDS011;2038;51.728;6.674;2023-04-03T11:35:18;2.20;;;2.00;;
4047;SDS011;2038;51.728;6.674;2023-04-03T11:37:47;4.33;;;2.40;;
4047;SDS011;2038;51.728;6.674;2023-04-03T11:42:55;2.73;;;1.87;;
4047;SDS011;2038;51.728;6.674;2023-04-03T11:46:06;5.07;;;2.30;;
4047;SDS011;2038;51.728;6.674;2023-04-03T11:53:41;3.77;;;2.20;;
4047;SDS011;2038;51.728;6.674;2023-04-03T12:01:46;2.27;;;2.17;;
4047;SDS011;2038;51.728;6.674;2023-04-03T12:04:26;3.70;;;1.70;;
4047;SDS011;2038;51.728;6.674;2023-04-03T12:07:16;15.70;;;2.90;;
4047;SDS011;2038;51.728;6.674;2023-04-03T12:12:29;5.37;;;2.30;;
4047;SDS011;2038;51.728;6.674;2023-04-03T12:15:16;7.03;;;2.40;;
4047;SDS011;2038;51.728;6.674;2023-04-03T12:18:30;7.93;;;2.80;;
4047;SDS011;2038;51.728;6.674;2023-04-03T12:21:14;2.47;;;1.70;;
4047;SDS011;2038;51.728;6.674;2023-04-03T12:24:04;4.80;;;2.20;;
4047;SDS011;2038;51.728;6.674;2023-04-03T12:26:38;4.90;;;2.00;;
4047;SDS011;2038;51.728;6.674;2023-04-03T12:29:27;2.03;;;1.73;;
4047;SDS011;2038;51.728;6.674;2023-04-03T12:38:33;3.27;;;2.30;;
4047;SDS011;2038;51.728;6.674;2023-04-03T12:44:30;5.40;;;2.73;;
4047;SDS011;2038;51.728;6.674;2023-04-03T12:47:27;6.30;;;3.23;;
4047;SDS011;2038;51.728;6.674;2023-04-03T12:50:01;3.33;;;2.30;;
4047;SDS011;2038;51.728;6.674;2023-04-03T12:52:44;4.87;;;2.00;;
4047;SDS011;2038;51.728;6.674;2023-04-03T12:55:20;3.10;;;2.30;;
4047;SDS011;2038;51.728;6.674;2023-04-03T12:57:47;9.50;;;3.00;;
4047;SDS011;2038;51.728;6.674;2023-04-03T13:00:21;3.37;;;1.90;;
4047;SDS011;2038;51.728;6.674;2023-04-03T13:02:58;2.90;;;2.20;;
4047;SDS011;2038;51.728;6.674;2023-04-03T13:05:28;2.47;;;2.00;;
4047;SDS011;2038;51.728;6.674;2023-04-03T13:08:01;3.50;;;2.27;;
4047;SDS011;2038;51.728;6.674;2023-04-03T13:10:43;4.80;;;2.33;;
4047;SDS011;2038;51.728;6.674;2023-04-03T13:14:01;4.60;;;2.13;;
4047;SDS011;2038;51.728;6.674;2023-04-03T13:16:39;2.73;;;2.20;;
4047;SDS011;2038;51.728;6.674;2023-04-03T13:19:06;3.97;;;3.27;;
4047;SDS011;2038;51.728;6.674;2023-04-03T13:21:42;6.37;;;2.60;;
4047;SDS011;2038;51.728;6.674;2023-04-03T13:24:10;7.00;;;2.23;;
4047;SDS011;2038;51.728;6.674;2023-04-03T13:26:37;3.40;;;2.20;;
4047;SDS011;2038;51.728;6.674;2023-04-03T13:29:07;4.80;;;2.47;;
4047;SDS011;2038;51.728;6.674;2023-04-03T13:31:53;4.90;;;2.43;;
4047;SDS011;2038;51.728;6.674;2023-04-03T13:34:23;4.50;;;2.60;;
4047;SDS011;2038;51.728;6.674;2023-04-03T13:39:21;3.63;;;2.67;;
4047;SDS011;2038;51.728;6.674;2023-04-03T13:41:59;5.73;;;2.70;;
4047;SDS011;2038;51.728;6.674;2023-04-03T13:44:40;4.80;;;2.80;;
4047;SDS011;2038;51.728;6.674;2023-04-03T13:49:43;4.33;;;2.43;;
4047;SDS011;2038;51.728;6.674;2023-04-03T13:52:28;7.57;;;2.70;;
4047;SDS011;2038;51.728;6.674;2023-04-03T13:55:02;4.03;;;2.37;;
4047;SDS011;2038;51.728;6.674;2023-04-03T14:00:27;3.53;;;3.20;;
4047;SDS011;2038;51.728;6.674;2023-04-03T14:03:16;3.00;;;2.00;;
4047;SDS011;2038;51.728;6.674;2023-04-03T14:05:56;4.57;;;2.13;;
4047;SDS011;2038;51.728;6.674;2023-04-03T14:08:24;6.43;;;2.60;;
4047;SDS011;2038;51.728;6.674;2023-04-03T14:10:52;6.43;;;2.97;;
4047;SDS011;2038;51.728;6.674;2023-04-03T14:13:19;2.40;;;2.20;;
4047;SDS011;2038;51.728;6.674;2023-04-03T14:15:46;5.57;;;2.43;;
4047;SDS011;2038;51.728;6.674;2023-04-03T14:18:14;2.53;;;2.33;;
4047;SDS011;2038;51.728;6.674;2023-04-03T14:20:45;2.33;;;2.13;;
4047;SDS011;2038;51.728;6.674;2023-04-03T14:23:12;3.80;;;2.20;;
4047;SDS011;2038;51.728;6.674;2023-04-03T14:25:39;3.30;;;2.40;;
4047;SDS011;2038;51.728;6.674;2023-04-03T14:28:16;4.70;;;2.70;;
4047;SDS011;2038;51.728;6.674;2023-04-03T14:30:47;2.23;;;2.03;;
4047;SDS011;2038;51.728;6.674;2023-04-03T14:33:19;3.13;;;2.03;;
4047;SDS011;2038;51.728;6.674;2023-04-03T14:35:47;3.73;;;2.03;;
4047;SDS011;2038;51.728;6.674;2023-04-03T14:38:21;2.90;;;1.90;;
4047;SDS011;2038;51.728;6.674;2023-04-03T14:40:52;2.83;;;2.53;;
4047;SDS011;2038;51.728;6.674;2023-04-03T14:43:21;2.70;;;2.30;;
4047;SDS011;2038;51.728;6.674;2023-04-03T14:45:48;5.53;;;2.50;;
4047;SDS011;2038;51.728;6.674;2023-04-03T14:48:20;3.37;;;2.27;;
4047;SDS011;2038;51.728;6.674;2023-04-03T14:50:51;4.70;;;2.00;;
4047;SDS011;2038;51.728;6.674;2023-04-03T14:53:18;4.20;;;2.70;;
4047;SDS011;2038;51.728;6.674;2023-04-03T14:55:49;2.90;;;1.93;;
4047;SDS011;2038;51.728;6.674;2023-04-03T14:58:18;5.20;;;2.40;;
4047;SDS011;2038;51.728;6.674;2023-04-03T15:00:46;2.87;;;2.00;;
4047;SDS011;2038;51.728;6.674;2023-04-03T15:03:19;4.87;;;2.33;;
4047;SDS011;2038;51.728;6.674;2023-04-03T15:05:47;2.00;;;1.90;;
4047;SDS011;2038;51.728;6.674;2023-04-03T15:08:19;5.33;;;2.37;;
4047;SDS011;2038;51.728;6.674;2023-04-03T15:10:50;2.33;;;2.13;;
4047;SDS011;2038;51.728;6.674;2023-04-03T15:13:18;3.00;;;2.40;;
4047;SDS011;2038;51.728;6.674;2023-04-03T15:15:45;6.33;;;2.00;;
4047;SDS011;2038;51.728;6.674;2023-04-03T15:18:20;5.93;;;2.20;;
4047;SDS011;2038;51.728;6.674;2023-04-03T15:20:51;3.87;;;2.23;;
4047;SDS011;2038;51.728;6.674;2023-04-03T15:23:19;4.50;;;2.20;;
4047;SDS011;2038;51.728;6.674;2023-04-03T15:25:50;7.63;;;2.80;;
4047;SDS011;2038;51.728;6.674;2023-04-03T15:28:19;3.47;;;2.70;;
4047;SDS011;2038;51.728;6.674;2023-04-03T15:31:14;5.00;;;2.67;;
4047;SDS011;2038;51.728;6.674;2023-04-03T15:33:40;2.60;;;1.80;;
4047;SDS011;2038;51.728;6.674;2023-04-03T15:36:06;6.30;;;2.77;;
4047;SDS011;2038;51.728;6.674;2023-04-03T15:38:33;3.80;;;2.10;;
4047;SDS011;2038;51.728;6.674;2023-04-03T15:41:00;5.13;;;2.13;;
4047;SDS011;2038;51.728;6.674;2023-04-03T15:43:26;3.70;;;2.67;;
4047;SDS011;2038;51.728;6.674;2023-04-03T15:45:52;4.50;;;3.27;;
4047;SDS011;2038;51.728;6.674;2023-04-03T15:48:25;3.63;;;2.50;;
4047;SDS011;2038;51.728;6.674;2023-04-03T15:50:52;6.23;;;2.57;;
4047;SDS011;2038;51.728;6.674;2023-04-03T15:53:19;4.10;;;2.70;;
4047;SDS011;2038;51.728;6.674;2023-04-03T15:55:45;4.77;;;2.37;;
4047;SDS011;2038;51.728;6.674;2023-04-03T15:58:12;4.00;;;2.53;;
4047;SDS011;2038;51.728;6.674;2023-04-03T16:00:38;7.07;;;2.90;;
4047;SDS011;2038;51.728;6.674;2023-04-03T16:03:07;4.60;;;2.40;;
4047;SDS011;2038;51.728;6.674;2023-04-03T16:05:41;4.80;;;2.30;;
4047;SDS011;2038;51.728;6.674;2023-04-03T16:08:08;5.70;;;2.60;;
4047;SDS011;2038;51.728;6.674;2023-04-03T16:10:36;4.40;;;2.17;;
4047;SDS011;2038;51.728;6.674;2023-04-03T16:13:04;3.13;;;2.37;;
4047;SDS011;2038;51.728;6.674;2023-04-03T16:15:30;4.27;;;2.80;;
4047;SDS011;2038;51.728;6.674;2023-04-03T16:17:59;3.60;;;2.47;;
4047;SDS011;2038;51.728;6.674;2023-04-03T16:20:27;3.67;;;2.27;;
4047;SDS011;2038;51.728;6.674;2023-04-03T16:22:54;7.17;;;2.40;;
4047;SDS011;2038;51.728;6.674;2023-04-03T16:25:24;3.00;;;2.70;;
4047;SDS011;2038;51.728;6.674;2023-04-03T16:27:51;4.70;;;2.33;;
4047;SDS011;2038;51.728;6.674;2023-04-03T16:30:18;3.30;;;2.63;;
4047;SDS011;2038;51.728;6.674;2023-04-03T16:32:44;4.50;;;2.40;;
4047;SDS011;2038;51.728;6.674;2023-04-03T16:35:11;3.40;;;2.47;;
4047;SDS011;2038;51.728;6.674;2023-04-03T16:37:37;3.00;;;2.30;;
4047;SDS011;2038;51.728;6.674;2023-04-03T16:40:05;2.60;;;2.37;;
4047;SDS011;2038;51.728;6.674;2023-04-03T16:42:32;4.13;;;2.50;;
4047;SDS011;2038;51.728;6.674;2023-04-03T16:44:59;4.03;;;2.60;;
4047;SDS011;2038;51.728;6.674;2023-04-03T16:47:28;3.70;;;2.73;;
4047;SDS011;2038;51.728;6.674;2023-04-03T16:49:55;6.13;;;2.13;;
4047;SDS011;2038;51.728;6.674;2023-04-03T16:52:21;11.83;;;2.57;;
4047;SDS011;2038;51.728;6.674;2023-04-03T16:54:47;2.83;;;2.40;;
4047;SDS011;2038;51.728;6.674;2023-04-03T16:57:14;7.03;;;2.53;;
4047;SDS011;2038;51.728;6.674;2023-04-03T16:59:40;6.07;;;2.33;;
4047;SDS011;2038;51.728;6.674;2023-04-03T17:02:06;4.60;;;2.10;;
4047;SDS011;2038;51.728;6.674;2023-04-03T17:04:32;7.40;;;2.50;;
4047;SDS011;2038;51.728;6.674;2023-04-03T17:06:59;5.80;;;2.30;;
4047;SDS011;2038;51.728;6.674;2023-04-03T17:09:30;3.80;;;3.13;;